• Join FlightAware (Why Join?)
  • Login
  • US Flag 
Rudolph Flight #1: Arrived! 
06:47AM EST


 

Airport Tracker/Info


-or-


 

Live Flight TrackerFlight Track Log ✈ UCA3599 ✈ 02-Nov-2013 ✈ KBGM - KIAD

Flight Track Log - Related Links

Times and Time Zones

All times are in EDT time to prevent confusion due to time zone crossing. See the UCA3599 flight status page for this flight to view local times or setup timezone preferences in your user account.

Time Position Orientation Groundspeed Altitude Reporting Facility
EDT Latitude Longitude Course Direction KTS MPH feet Rate Location/Type
06:22AM 42.1381 -75.9781 209° Southwest 177 204 4,000  Level New York Center
06:23AM 42.1028 -76.0228 223° Southwest 182 209 5,300 1,380 Climbing New York Center
06:24AM 42.0636 -76.0644 218° Southwest 189 217 6,800 1,320 Climbing New York Center
06:25AM 42.0178 -76.1083 215° Southwest 189 217 8,000 1,320 Climbing New York Center
06:26AM 41.9106 -76.1213 209° Southwest  Level Estimated
06:26AM 41.9828 -76.1472 220° Southwest 189 217 9,500  Level New York Center
06:27AM 41.9436 -76.1831 214° Southwest 184 212 11,000 1,380 Climbing New York Center
06:28AM 41.8989 -76.2072 202° Southwest 171 197 12,300 1,140 Climbing New York Center
06:29AM 41.8539 -76.2342 204° Southwest 171 197 13,300 900 Climbing New York Center
06:30AM 41.8108 -76.2642 207° Southwest 176 203 14,200 900 Climbing New York Center
06:31AM 41.7681 -76.2883 203° Southwest 181 208 15,200 900 Climbing New York Center
06:32AM 41.7231 -76.3153 204° Southwest 181 208 16,000 360 Climbing New York Center
06:33AM 41.6653 -76.3494 204° Southwest 186 214 16,000  Level New York Center
06:34AM 41.6136 -76.3839 206° Southwest 203 234 16,000  Level New York Center
06:35AM 41.5622 -76.4128 203° Southwest 214 246 16,000  Level New York Center
06:36AM 41.5086 -76.4472 206° Southwest 220 253 16,000  Level New York Center
06:37AM 41.4486 -76.4808 203° Southwest 220 253 16,000  Level New York Center
06:38AM 41.3950 -76.5150 206° Southwest 220 253 16,000  Level New York Center
06:39AM 41.3411 -76.5492 205° Southwest 220 253 16,000  Level New York Center
06:40AM 41.2917 -76.5808 206° Southwest 220 253 16,000  Level New York Center
06:41AM 41.2358 -76.6147 205° Southwest 220 253 16,000  Level New York Center
06:42AM 41.1758 -76.6481 203° Southwest 220 253 16,000  Level New York Center
06:43AM 41.1264 -76.6822 207° Southwest 220 253 16,000  Level New York Center
06:44AM 41.0725 -76.7161 205° Southwest 220 253 16,000  Level New York Center
06:45AM 41.0189 -76.7472 204° Southwest 220 253 16,000  Level New York Center
06:46AM 40.9631 -76.7808 204° Southwest 220 253 16,000  Level New York Center
06:48AM 40.8489 -76.8503 205° Southwest 220 253 16,000  Level New York Center
06:49AM 40.7997 -76.8789 204° Southwest 220 253 16,000  Level New York Center
06:50AM 40.7358 -76.9006 194° South 220 253 16,000  Level New York Center
06:51AM 40.6828 -76.9206 196° South 225 259 16,000  Level New York Center
06:52AM 40.6153 -76.9389 192° South 225 259 16,000  Level New York Center
06:53AM 40.5600 -76.9558 193° South 225 259 16,000  Level New York Center
06:54AM 40.4944 -76.9772 194° South 225 259 16,000  Level New York Center
06:55AM 40.4392 -76.9942 193° South 225 259 16,000 -300 Level New York Center
06:56AM 40.3717 -77.0125 192° South 232 267 15,400 -840 Descending New York Center
06:57AM 40.3119 -77.0344 196° South 244 281 14,400 -1,140 Descending New York Center
07:00AM 40.1000 -77.1000 193° South 237 273 10,800 -1,140 Descending Potomac TRACON
07:01AM 40.0333 -77.1167 191° South 238 274 9,700 -900 Descending Potomac TRACON
07:02AM 39.9667 -77.1333 191° South 232 267 9,000 -300 Descending Potomac TRACON
07:04AM 39.8667 -77.1833 201° Southwest 220 253 9,000 -180 Level Potomac TRACON
07:05AM 39.7833 -77.2167 197° South 229 264 8,600 -480 Descending Potomac TRACON
07:06AM 39.7333 -77.2333 194° South 239 275 8,100 -660 Descending Potomac TRACON
07:07AM 39.6833 -77.2500 194° South 244 281 7,600 -600 Descending Potomac TRACON
07:08AM 39.6167 -77.2833 201° Southwest 253 291 7,000 -300 Descending Potomac TRACON
07:09AM 39.5500 -77.3000 191° South 243 280 7,000  Level Potomac TRACON
07:10AM 39.4833 -77.3333 201° Southwest 238 274 7,000  Level Potomac TRACON
07:11AM 39.4333 -77.3500 194° South 238 274 7,000 -240 Level Potomac TRACON
07:12AM 39.3667 -77.3667 191° South 251 289 6,600 -900 Descending Potomac TRACON
07:13AM 39.2833 -77.3667 180° South 267 307 5,300 -900 Descending Potomac TRACON
07:14AM 39.2333 -77.3667 180° South 255 293 4,900 -780 Descending Potomac TRACON
07:15AM 39.1667 -77.3500 169° South 263 303 4,000 -480 Descending Potomac TRACON
07:16AM 39.0833 -77.3500 180° South 250 288 4,000  Level Potomac TRACON
07:17AM 39.0167 -77.3500 180° South 252 290 4,000 -60 Level Potomac TRACON
07:18AM 38.9500 -77.3500 180° South 257 296 3,900 -540 Descending Potomac TRACON
07:19AM 38.8833 -77.3667 191° South 260 299 3,000 -540 Descending Potomac TRACON
07:20AM 38.8333 -77.3833 195° South 213 245 2,900 -600 Descending Potomac TRACON
07:21AM 38.8333 -77.4333 270° West 166 191 1,800 -840 Descending Potomac TRACON
07:22AM 38.8667 -77.4333 360° North 115 132 1,300 -600 Descending Potomac TRACON
07:23AM 38.9000 -77.4333 360° North 112 129 700 -600 Descending Potomac TRACON
07:25AM 38.9333 -77.4500 349° North  Level FlightAware Approximate
07:32AM 38.9474 -77.4599 349° North  Level Estimated